Time;durP1;ratioP1;P1;durP2;ratioP2;P2;SDS_P1;SDS_P2;PMS_P1;PMS_P2;Temp;Humidity;BMP_temperature;BMP_pressure;BME280_temperature;BME280_humidity;BME280_pressure;Samples;Min_cycle;Max_cycle;Signal;HPM_P1;HPM_P2
2022/01/19 00:01:16;;;;;;;61.20;23.63;;;4.40;99.90;;;;;;5050405;28;20052;-73
2022/01/19 00:03:42;;;;;;;53.33;24.23;;;4.40;99.90;;;;;;5027498;28;20402;-72
2022/01/19 00:06:08;;;;;;;54.35;22.92;;;4.40;99.90;;;;;;5030715;28;20219;-73
2022/01/19 00:08:34;;;;;;;54.08;22.13;;;4.30;99.90;;;;;;5010099;28;20199;-73
2022/01/19 00:11:00;;;;;;;59.00;23.77;;;4.30;99.90;;;;;;5045666;28;20105;-73
2022/01/19 00:13:25;;;;;;;55.05;24.02;;;4.30;99.90;;;;;;5012665;28;20049;-73
2022/01/19 00:15:53;;;;;;;57.78;25.20;;;4.30;99.90;;;;;;5029351;28;20044;-73
2022/01/19 00:18:22;;;;;;;56.00;23.30;;;4.30;99.90;;;;;;5028586;28;20422;-73
2022/01/19 00:20:49;;;;;;;57.30;23.92;;;4.30;99.90;;;;;;5026573;28;20042;-72
2022/01/19 00:23:16;;;;;;;60.95;25.05;;;4.30;99.90;;;;;;5007635;28;20355;-74
2022/01/19 00:25:43;;;;;;;61.67;25.27;;;4.30;99.90;;;;;;5041878;28;20041;-73
2022/01/19 00:28:09;;;;;;;59.90;24.50;;;4.30;99.90;;;;;;5026920;28;20053;-73
2022/01/19 00:30:34;;;;;;;62.33;24.42;;;4.20;99.90;;;;;;5013025;28;20183;-73
2022/01/19 00:33:01;;;;;;;58.60;24.15;;;4.30;99.90;;;;;;5009964;28;20128;-73
2022/01/19 00:35:27;;;;;;;64.10;25.98;;;4.30;99.90;;;;;;5023058;28;20045;-73
2022/01/19 00:37:53;;;;;;;59.53;24.95;;;4.30;99.90;;;;;;5008037;28;20037;-73
2022/01/19 00:40:19;;;;;;;67.07;26.25;;;4.20;99.90;;;;;;5039697;28;20099;-73
2022/01/19 00:42:45;;;;;;;66.13;25.17;;;4.20;99.90;;;;;;5024995;28;20640;-73
2022/01/19 00:45:13;;;;;;;60.72;23.25;;;4.30;99.90;;;;;;5025203;28;20486;-73
2022/01/19 00:47:39;;;;;;;63.10;24.42;;;4.20;99.90;;;;;;5038939;28;20049;-73
2022/01/19 00:50:06;;;;;;;62.45;25.13;;;4.20;99.90;;;;;;5025649;28;20060;-73
2022/01/19 00:52:32;;;;;;;72.00;25.52;;;4.20;99.90;;;;;;5026966;28;20053;-73
2022/01/19 00:54:58;;;;;;;68.40;25.88;;;4.20;99.90;;;;;;5025107;28;20166;-73
2022/01/19 00:57:23;;;;;;;58.10;24.80;;;4.20;99.90;;;;;;5023545;28;20041;-72
2022/01/19 00:59:51;;;;;;;64.15;26.08;;;4.20;99.90;;;;;;5012702;28;20782;-72
2022/01/19 01:02:16;;;;;;;67.25;26.27;;;4.20;99.90;;;;;;5045292;28;20045;-73
2022/01/19 01:04:42;;;;;;;57.35;24.88;;;4.20;99.90;;;;;;5025783;28;20045;-73
2022/01/19 01:07:08;;;;;;;69.18;26.17;;;4.20;99.90;;;;;;5009718;28;20351;-73
2022/01/19 01:09:33;;;;;;;75.32;28.20;;;4.10;99.90;;;;;;5023108;28;20398;-73
2022/01/19 01:12:10;;;;;;;72.60;27.98;;;4.10;99.90;;;;;;5028264;28;20132;-72
2022/01/19 01:20:08;;;;;;;78.03;29.98;;;4.10;99.90;;;;;;5022442;28;20111;-72
2022/01/19 01:22:34;;;;;;;77.78;28.67;;;4.00;99.90;;;;;;5020508;28;20055;-72
2022/01/19 01:25:00;;;;;;;92.40;30.95;;;4.00;99.90;;;;;;5018895;28;20045;-72
2022/01/19 01:27:26;;;;;;;80.70;30.73;;;4.00;99.90;;;;;;5023560;28;20049;-72
2022/01/19 01:29:52;;;;;;;73.80;29.40;;;4.00;99.90;;;;;;5007308;28;20049;-72
2022/01/19 01:32:18;;;;;;;71.90;28.48;;;4.00;99.90;;;;;;5038230;28;20056;-72
2022/01/19 01:34:44;;;;;;;81.97;30.40;;;4.00;99.90;;;;;;5011212;28;20092;-73
2022/01/19 01:37:10;;;;;;;71.53;30.23;;;4.00;99.90;;;;;;5037268;28;20029;-72
2022/01/19 01:39:35;;;;;;;71.47;28.17;;;3.90;99.90;;;;;;5029534;28;20041;-71
2022/01/19 01:42:08;;;;;;;81.05;28.65;;;4.00;99.90;;;;;;5039521;28;20048;-72
2022/01/19 01:44:36;;;;;;;81.88;29.95;;;3.90;99.90;;;;;;5039664;28;20049;-72
2022/01/19 01:47:02;;;;;;;78.22;29.45;;;3.90;99.90;;;;;;5007992;28;20150;-73
2022/01/19 01:49:42;;;;;;;73.15;28.58;;;3.90;99.90;;;;;;5010662;28;20383;-72
2022/01/19 01:54:52;;;;;;;71.28;26.58;;;3.90;99.90;;;;;;5039115;28;20050;-72
2022/01/19 01:57:18;;;;;;;71.20;26.73;;;3.90;99.90;;;;;;5024078;28;20041;-73
2022/01/19 01:59:44;;;;;;;83.28;27.17;;;3.90;99.90;;;;;;5027401;28;20379;-72
2022/01/19 02:02:09;;;;;;;77.38;27.23;;;3.90;99.90;;;;;;5025563;28;20049;-72
2022/01/19 02:04:40;;;;;;;70.40;27.13;;;3.90;99.90;;;;;;5021927;28;20573;-72
2022/01/19 02:09:55;;;;;;;74.93;25.52;;;3.90;99.90;;;;;;5043139;28;20505;-73
2022/01/19 02:23:28;;;;;;;80.53;27.17;;;3.90;99.90;;;;;;5023992;28;20077;-72
2022/01/19 02:25:58;;;;;;;78.47;28.38;;;3.90;99.90;;;;;;5027079;28;20053;-72
2022/01/19 02:41:48;;;;;;;92.57;32.25;;;4.00;99.90;;;;;;5023996;28;20052;-73
2022/01/19 02:44:28;;;;;;;86.22;33.20;;;4.00;99.90;;;;;;5007837;28;20402;-72
2022/01/19 02:49:14;;;;;;;75.53;31.65;;;4.00;99.90;;;;;;5022214;28;20045;-72
2022/01/19 02:49:39;;;;;;;84.85;31.98;;;4.00;99.90;;;;;;5042178;28;20652;-72
2022/01/19 02:52:06;;;;;;;83.18;32.40;;;4.00;99.90;;;;;;5024903;28;20080;-72
2022/01/19 02:54:33;;;;;;;78.55;31.65;;;4.00;99.90;;;;;;5008331;28;20048;-72
2022/01/19 02:57:01;;;;;;;86.50;33.08;;;4.10;99.90;;;;;;5022592;28;20509;-72
2022/01/19 03:10:06;;;;;;;94.22;36.78;;;4.10;99.90;;;;;;5026736;28;20478;-72
2022/01/19 03:12:32;;;;;;;92.88;33.55;;;4.10;99.90;;;;;;5021537;28;20511;-72
2022/01/19 03:14:57;;;;;;;87.75;32.05;;;4.10;99.90;;;;;;5021880;28;20047;-72
2022/01/19 03:17:23;;;;;;;89.57;29.27;;;4.10;99.90;;;;;;5022224;28;20041;-72
2022/01/19 03:19:49;;;;;;;84.65;29.65;;;4.10;99.90;;;;;;5025100;28;20048;-73
2022/01/19 03:22:18;;;;;;;99.63;31.75;;;4.10;99.90;;;;;;5022000;28;20064;-73
2022/01/19 03:24:50;;;;;;;103.40;31.30;;;4.00;99.90;;;;;;5004927;28;20991;-71
2022/01/19 03:27:15;;;;;;;;;;;4.10;99.90;;;;;;5007440;28;20404;-72
2022/01/19 03:29:41;;;;;;;93.57;28.92;;;4.10;99.90;;;;;;5038612;28;19933;-73
2022/01/19 03:32:08;;;;;;;91.60;29.80;;;4.00;99.90;;;;;;5000837;28;21245;-72
2022/01/19 03:34:33;;;;;;;88.05;26.92;;;4.00;99.90;;;;;;5005756;28;20048;-72
2022/01/19 03:36:59;;;;;;;101.22;28.65;;;4.00;99.90;;;;;;5009630;28;20041;-71
2022/01/19 03:39:25;;;;;;;84.03;26.58;;;4.00;99.90;;;;;;5031501;28;20048;-73
2022/01/19 03:41:50;;;;;;;83.07;27.08;;;4.00;99.90;;;;;;5025894;28;20049;-72
2022/01/19 03:44:16;;;;;;;85.40;26.35;;;4.00;99.90;;;;;;5024659;28;20099;-71
2022/01/19 03:46:54;;;;;;;91.38;27.40;;;3.90;99.90;;;;;;5019999;28;20111;-72
2022/01/19 03:49:24;;;;;;;91.40;28.13;;;4.00;99.90;;;;;;5022805;28;20100;-72
2022/01/19 03:51:52;;;;;;;92.72;26.65;;;4.00;99.90;;;;;;5033437;28;20564;-72
2022/01/19 03:54:18;;;;;;;112.32;30.50;;;3.90;99.90;;;;;;5022010;28;20052;-72
2022/01/19 03:56:44;;;;;;;98.20;30.25;;;4.00;99.90;;;;;;5044196;28;20053;-71
2022/01/19 03:59:10;;;;;;;89.63;26.65;;;4.00;99.90;;;;;;5026301;28;20041;-72
2022/01/19 04:01:35;;;;;;;98.85;27.90;;;4.00;99.90;;;;;;5023447;28;20749;-72
2022/01/19 04:04:23;;;;;;;102.93;26.67;;;4.00;99.90;;;;;;5005511;28;20519;-72
2022/01/19 04:06:59;;;;;;;100.05;29.35;;;4.00;99.90;;;;;;5031097;28;20083;-72
2022/01/19 04:09:26;;;;;;;98.40;28.70;;;3.90;99.90;;;;;;5033897;28;20095;-72
2022/01/19 04:11:52;;;;;;;90.15;27.52;;;3.90;99.90;;;;;;5016493;28;20395;-72
2022/01/19 04:14:27;;;;;;;97.47;29.10;;;4.00;99.90;;;;;;5029111;28;20041;-72
2022/01/19 04:16:58;;;;;;;98.65;28.58;;;4.00;99.90;;;;;;5014881;28;20052;-72
2022/01/19 04:19:28;;;;;;;91.25;27.15;;;4.00;99.90;;;;;;5043896;28;20514;-72
2022/01/19 04:21:56;;;;;;;89.03;26.88;;;4.00;99.90;;;;;;5044359;28;20041;-73
2022/01/19 04:24:22;;;;;;;86.25;27.27;;;3.90;99.90;;;;;;5007512;28;20079;-73
2022/01/19 04:29:33;;;;;;;77.35;24.40;;;3.90;99.90;;;;;;5027334;28;20056;-72
2022/01/19 04:32:07;;;;;;;77.38;26.60;;;3.90;99.90;;;;;;5026154;28;20037;-73
2022/01/19 04:34:33;;;;;;;83.82;25.48;;;3.80;99.90;;;;;;5026337;28;20041;-73
2022/01/19 04:37:24;;;;;;;79.78;25.13;;;3.80;99.90;;;;;;5023030;28;20865;-73
2022/01/19 05:01:45;;;;;;;67.10;22.75;;;3.80;99.90;;;;;;5025705;28;20052;-72
2022/01/19 05:04:29;;;;;;;62.30;22.70;;;3.70;99.90;;;;;;5009190;28;20080;-73
2022/01/19 05:07:09;;;;;;;74.82;23.25;;;3.70;99.90;;;;;;5044502;28;20063;-72
2022/01/19 05:14:45;;;;;;;69.28;23.88;;;3.70;99.90;;;;;;5052007;28;20099;-72
2022/01/19 05:17:10;;;;;;;68.78;23.95;;;3.70;99.90;;;;;;5006770;28;20029;-72
2022/01/19 05:19:36;;;;;;;62.10;24.33;;;3.70;99.90;;;;;;5018600;28;20053;-72
2022/01/19 05:22:03;;;;;;;59.28;22.85;;;3.70;99.90;;;;;;5045932;28;20059;-73
2022/01/19 05:24:29;;;;;;;62.58;23.77;;;3.70;99.90;;;;;;5017736;28;20049;-72
2022/01/19 05:26:55;;;;;;;72.55;23.73;;;3.70;99.90;;;;;;5029570;28;20383;-72
2022/01/19 05:29:20;;;;;;;71.72;23.45;;;3.70;99.90;;;;;;5023811;28;20034;-71
2022/01/19 05:31:46;;;;;;;69.53;24.08;;;3.70;99.90;;;;;;5049451;28;20037;-72
2022/01/19 05:34:12;;;;;;;67.03;22.92;;;3.70;99.90;;;;;;5039745;28;20397;-72
2022/01/19 05:36:38;;;;;;;62.35;22.88;;;3.70;99.90;;;;;;5013936;28;20046;-72
2022/01/19 05:39:05;;;;;;;69.28;25.00;;;3.70;99.90;;;;;;5026170;28;20136;-72
2022/01/19 05:41:32;;;;;;;67.47;23.35;;;3.70;99.90;;;;;;5044121;28;20068;-72
2022/01/19 05:43:58;;;;;;;66.22;22.60;;;3.80;99.90;;;;;;5008792;28;20510;-72
2022/01/19 05:46:23;;;;;;;60.60;23.90;;;3.80;99.90;;;;;;5018398;28;20094;-72
2022/01/19 05:48:49;;;;;;;69.97;23.83;;;3.80;99.90;;;;;;5005315;28;20046;-72
2022/01/19 05:51:15;;;;;;;52.15;22.38;;;3.70;99.90;;;;;;5011395;28;20119;-72
2022/01/19 05:53:41;;;;;;;71.60;25.33;;;3.70;99.90;;;;;;5041676;28;20029;-72
2022/01/19 05:56:07;;;;;;;59.35;22.92;;;3.80;99.90;;;;;;5007513;28;20037;-72
2022/01/19 05:58:33;;;;;;;63.22;21.92;;;3.80;99.90;;;;;;5028298;28;20041;-72
2022/01/19 06:00:59;;;;;;;64.30;23.73;;;3.80;99.90;;;;;;5044681;28;20128;-72
2022/01/19 06:03:25;;;;;;;62.40;23.05;;;3.80;99.90;;;;;;5019174;28;20039;-72
2022/01/19 06:05:50;;;;;;;60.58;22.75;;;3.70;99.90;;;;;;5022921;28;20497;-72
2022/01/19 06:10:48;;;;;;;58.38;22.67;;;3.80;99.90;;;;;;5046637;28;20048;-72
2022/01/19 06:13:18;;;;;;;69.07;23.92;;;3.80;99.90;;;;;;5023959;28;20790;-72
2022/01/19 06:15:45;;;;;;;61.15;23.55;;;3.70;99.90;;;;;;5032763;28;20095;-72
2022/01/19 06:18:12;;;;;;;62.72;23.95;;;3.80;99.90;;;;;;5039305;28;20120;-72
2022/01/19 06:20:39;;;;;;;60.05;25.15;;;3.70;99.90;;;;;;5019381;28;20147;-73
2022/01/19 06:23:05;;;;;;;59.22;24.27;;;3.70;99.90;;;;;;5033695;28;20045;-72
2022/01/19 06:25:31;;;;;;;59.25;24.17;;;3.80;99.90;;;;;;5004752;28;20048;-73
2022/01/19 06:27:57;;;;;;;62.55;23.85;;;3.70;99.90;;;;;;5029545;28;20053;-72
2022/01/19 06:30:23;;;;;;;56.72;24.33;;;3.80;99.90;;;;;;5026545;28;20037;-72
2022/01/19 06:32:49;;;;;;;61.85;24.85;;;3.70;99.90;;;;;;5029802;28;20111;-72
2022/01/19 06:35:14;;;;;;;59.22;23.48;;;3.70;99.90;;;;;;5033350;28;20049;-72
2022/01/19 06:37:40;;;;;;;63.72;24.17;;;3.80;99.90;;;;;;5027650;28;20521;-72
2022/01/19 06:40:09;;;;;;;57.40;24.15;;;3.80;99.90;;;;;;5029199;28;20041;-72
2022/01/19 06:42:35;;;;;;;59.83;23.95;;;3.80;99.90;;;;;;5024539;28;20049;-72
2022/01/19 06:45:02;;;;;;;54.25;24.02;;;3.80;99.90;;;;;;5037423;28;20045;-72
2022/01/19 06:47:28;;;;;;;63.42;26.10;;;3.80;99.90;;;;;;5012581;28;20048;-72
2022/01/19 06:49:54;;;;;;;58.70;23.52;;;3.80;99.90;;;;;;5027817;28;20052;-72
2022/01/19 06:52:19;;;;;;;68.15;25.45;;;3.80;99.90;;;;;;4994704;28;20045;-73
2022/01/19 06:54:45;;;;;;;63.75;24.95;;;3.80;99.90;;;;;;5012577;28;20425;-72
2022/01/19 06:57:11;;;;;;;64.40;24.23;;;3.80;99.90;;;;;;5033466;28;20790;-72
2022/01/19 06:59:36;;;;;;;59.17;25.02;;;3.80;99.90;;;;;;4999781;28;20140;-72
2022/01/19 07:02:02;;;;;;;61.08;24.63;;;3.70;99.90;;;;;;5025832;28;20079;-72
2022/01/19 07:04:28;;;;;;;65.45;25.83;;;3.80;99.90;;;;;;5010779;28;20061;-73
2022/01/19 07:06:54;;;;;;;61.60;25.10;;;3.70;99.90;;;;;;4998193;28;20464;-72
2022/01/19 07:09:19;;;;;;;59.17;25.42;;;3.80;99.90;;;;;;5020448;28;20510;-72
2022/01/19 07:11:45;;;;;;;63.15;25.23;;;3.80;99.90;;;;;;5037631;28;20067;-71
2022/01/19 07:14:13;;;;;;;62.05;25.05;;;3.80;99.90;;;;;;5038688;28;20066;-72
2022/01/19 07:16:39;;;;;;;63.15;25.83;;;3.80;99.90;;;;;;5037553;28;20520;-73
2022/01/19 07:19:05;;;;;;;58.65;25.25;;;3.80;99.90;;;;;;5039101;28;20267;-72
2022/01/19 07:21:31;;;;;;;61.88;26.20;;;3.80;99.90;;;;;;5037478;28;20106;-72
2022/01/19 07:23:57;;;;;;;59.22;24.70;;;3.80;99.90;;;;;;5023626;28;20856;-72
2022/01/19 07:26:23;;;;;;;65.25;26.45;;;3.80;99.90;;;;;;5021831;28;20049;-73
2022/01/19 07:28:48;;;;;;;63.38;25.17;;;3.70;99.90;;;;;;5036748;28;20111;-72
2022/01/19 07:31:14;;;;;;;56.38;26.05;;;3.70;99.90;;;;;;5035542;28;20072;-73
2022/01/19 07:33:40;;;;;;;60.85;26.02;;;3.80;99.90;;;;;;5016889;28;20537;-72
2022/01/19 07:36:06;;;;;;;67.18;26.30;;;3.70;99.90;;;;;;5030721;28;20892;-72
2022/01/19 07:38:32;;;;;;;65.25;26.77;;;3.80;99.90;;;;;;5014676;28;20046;-72
2022/01/19 07:40:58;;;;;;;66.10;26.85;;;3.80;99.90;;;;;;5015324;28;20108;-72
2022/01/19 07:43:23;;;;;;;63.58;27.15;;;3.80;99.90;;;;;;5020908;28;20065;-72
2022/01/19 07:45:49;;;;;;;64.57;28.33;;;3.80;99.90;;;;;;5004513;28;20487;-73
2022/01/19 07:48:15;;;;;;;60.58;25.92;;;3.70;99.90;;;;;;5022748;28;20120;-73
2022/01/19 07:50:40;;;;;;;62.85;27.25;;;3.70;99.90;;;;;;5020677;28;20489;-72
2022/01/19 07:53:06;;;;;;;60.05;26.48;;;3.70;99.90;;;;;;5005946;28;20112;-72
2022/01/19 07:55:32;;;;;;;63.88;27.75;;;3.80;99.90;;;;;;5021865;28;20046;-73
2022/01/19 07:57:58;;;;;;;65.97;27.92;;;3.70;99.90;;;;;;5004339;28;20131;-72
2022/01/19 08:00:23;;;;;;;65.30;29.40;;;3.80;99.90;;;;;;5004021;28;20136;-72
2022/01/19 08:02:49;;;;;;;65.32;27.63;;;3.80;99.90;;;;;;5018482;28;20052;-73
2022/01/19 08:05:18;;;;;;;62.08;27.85;;;3.70;99.90;;;;;;5037130;28;20056;-72
2022/01/19 08:07:44;;;;;;;70.53;28.55;;;3.70;99.90;;;;;;5018283;28;20134;-73
2022/01/19 08:10:11;;;;;;;70.47;28.77;;;3.70;99.90;;;;;;5037049;28;20111;-72
2022/01/19 08:12:37;;;;;;;65.20;26.80;;;3.80;99.90;;;;;;5018692;28;20045;-73
2022/01/19 08:15:04;;;;;;;72.38;29.50;;;3.80;99.90;;;;;;5037708;28;20045;-73
2022/01/19 08:17:30;;;;;;;67.47;28.80;;;3.70;99.90;;;;;;5002190;28;20057;-73
2022/01/19 08:19:56;;;;;;;67.95;29.48;;;4.00;99.90;;;;;;5021197;28;20042;-73
2022/01/19 08:22:23;;;;;;;65.10;28.45;;;3.80;99.90;;;;;;5021662;28;20045;-73
2022/01/19 08:24:49;;;;;;;70.50;29.38;;;3.80;99.90;;;;;;5005197;28;20095;-72
2022/01/19 08:27:15;;;;;;;70.05;30.52;;;3.80;99.90;;;;;;5005604;28;20045;-73
2022/01/19 08:29:40;;;;;;;71.75;29.25;;;3.80;99.90;;;;;;5006159;28;20576;-73
2022/01/19 08:32:07;;;;;;;69.20;29.58;;;3.90;99.90;;;;;;5004665;28;20095;-72
2022/01/19 08:34:33;;;;;;;63.78;29.15;;;3.90;99.90;;;;;;5034052;28;20091;-73
2022/01/19 08:37:00;;;;;;;63.35;28.17;;;3.90;99.90;;;;;;5036685;28;20213;-73
2022/01/19 08:39:26;;;;;;;68.28;29.02;;;3.90;99.90;;;;;;5020789;28;20128;-73
2022/01/19 08:41:53;;;;;;;71.05;31.00;;;3.90;99.90;;;;;;5022625;28;20128;-73
2022/01/19 08:44:19;;;;;;;66.22;30.27;;;4.00;99.90;;;;;;5023517;28;20085;-72
2022/01/19 08:46:45;;;;;;;73.03;31.00;;;4.00;99.90;;;;;;5003312;28;20833;-73
2022/01/19 08:49:11;;;;;;;70.30;31.58;;;4.10;99.90;;;;;;5021295;28;20085;-72
2022/01/19 08:51:37;;;;;;;69.07;31.63;;;4.10;99.90;;;;;;5036992;28;20053;-72
2022/01/19 08:54:03;;;;;;;69.55;29.45;;;4.20;99.90;;;;;;5034740;28;20040;-73
2022/01/19 08:56:29;;;;;;;74.65;31.65;;;4.70;99.90;;;;;;5038106;28;20599;-73
2022/01/19 08:58:54;;;;;;;77.57;30.45;;;4.20;99.90;;;;;;5019355;28;20052;-72
2022/01/19 09:01:20;;;;;;;65.38;30.17;;;4.30;99.90;;;;;;5031948;28;20672;-73
2022/01/19 09:03:46;;;;;;;68.53;30.08;;;4.30;99.90;;;;;;5017134;28;20038;-72
2022/01/19 09:06:12;;;;;;;63.22;29.70;;;4.30;99.90;;;;;;5000578;28;20041;-73
2022/01/19 09:08:37;;;;;;;66.57;30.60;;;4.30;99.90;;;;;;5018022;28;20049;-72
2022/01/19 09:11:04;;;;;;;67.60;30.63;;;4.40;99.90;;;;;;5018873;28;20041;-72
2022/01/19 09:13:29;;;;;;;71.72;32.28;;;4.40;99.90;;;;;;5029130;28;20041;-73
2022/01/19 09:15:55;;;;;;;65.15;30.85;;;4.40;99.90;;;;;;5014268;28;20037;-72
2022/01/19 09:18:21;;;;;;;65.78;29.48;;;4.40;99.90;;;;;;5031509;28;20581;-73
2022/01/19 09:20:47;;;;;;;68.05;31.88;;;4.50;99.90;;;;;;4996434;28;20680;-72
2022/01/19 09:23:13;;;;;;;70.65;31.83;;;4.50;99.90;;;;;;5017684;28;20038;-72
2022/01/19 09:25:40;;;;;;;67.13;30.88;;;4.50;99.90;;;;;;5020578;28;20055;-73
2022/01/19 09:28:07;;;;;;;72.70;33.67;;;4.50;99.90;;;;;;5035096;28;20061;-72
2022/01/19 09:30:33;;;;;;;70.50;31.27;;;4.60;99.90;;;;;;5019196;28;20049;-73
2022/01/19 09:33:07;;;;;;;67.60;29.73;;;4.60;99.90;;;;;;5020413;28;20049;-73
2022/01/19 09:35:52;;;;;;;68.32;30.80;;;4.60;99.90;;;;;;5003076;28;20053;-74
2022/01/19 09:38:20;;;;;;;78.10;33.85;;;4.60;99.90;;;;;;5003350;28;20122;-72
2022/01/19 09:40:46;;;;;;;71.45;31.20;;;4.60;99.90;;;;;;5017537;28;20041;-72
2022/01/19 09:43:12;;;;;;;69.70;31.42;;;4.60;99.90;;;;;;5032860;28;20769;-73
2022/01/19 09:45:37;;;;;;;70.68;31.00;;;4.60;99.90;;;;;;5019870;28;20057;-73
2022/01/19 09:48:04;;;;;;;75.60;32.53;;;4.60;99.90;;;;;;5036268;28;20116;-73
2022/01/19 09:50:31;;;;;;;66.75;31.33;;;4.70;99.90;;;;;;5002601;28;20053;-72
2022/01/19 09:52:57;;;;;;;69.07;30.45;;;4.70;99.90;;;;;;5018893;28;20073;-72
2022/01/19 09:55:22;;;;;;;74.22;31.83;;;4.70;99.90;;;;;;5036206;28;20052;-73
2022/01/19 09:57:48;;;;;;;63.38;30.90;;;4.70;99.90;;;;;;5017405;28;20045;-72
2022/01/19 10:00:14;;;;;;;70.57;31.70;;;4.70;99.90;;;;;;5035091;28;20057;-73
2022/01/19 10:02:40;;;;;;;74.18;33.05;;;4.70;99.90;;;;;;5018727;28;20053;-73
2022/01/19 10:05:09;;;;;;;71.32;32.92;;;4.70;99.90;;;;;;5017988;28;20530;-72
2022/01/19 10:07:35;;;;;;;67.22;32.70;;;4.70;99.90;;;;;;5016541;28;20094;-73
2022/01/19 10:10:04;;;;;;;66.55;31.33;;;4.70;99.90;;;;;;5003041;28;20172;-73
2022/01/19 10:18:25;;;;;;;69.18;31.90;;;4.60;99.90;;;;;;5017682;28;20132;-72
2022/01/19 10:21:05;;;;;;;71.43;32.95;;;4.60;99.90;;;;;;5001304;28;20095;-73
2022/01/19 10:23:40;;;;;;;74.65;32.72;;;4.60;99.90;;;;;;5036118;28;20071;-73
2022/01/19 10:26:11;;;;;;;74.28;32.63;;;4.60;99.90;;;;;;5034128;28;20060;-72
2022/01/19 10:29:07;;;;;;;75.20;34.60;;;4.60;99.90;;;;;;5016874;28;20056;-72
2022/01/19 10:31:36;;;;;;;68.72;33.00;;;4.60;99.90;;;;;;5032745;28;20056;-72
2022/01/19 10:34:17;;;;;;;78.68;33.88;;;4.60;99.90;;;;;;5036896;28;20045;-73
2022/01/19 10:36:55;;;;;;;77.88;34.28;;;4.60;99.90;;;;;;5017290;28;20128;-72
2022/01/19 10:39:23;;;;;;;75.68;34.60;;;4.60;99.90;;;;;;5021282;28;20096;-72
2022/01/19 10:42:06;;;;;;;69.32;32.97;;;4.70;99.90;;;;;;5023168;28;20045;-72
2022/01/19 10:44:41;;;;;;;82.90;35.35;;;4.70;99.90;;;;;;5038749;28;20060;-72
2022/01/19 10:47:08;;;;;;;77.00;34.15;;;4.70;99.90;;;;;;5022899;28;20041;-73
2022/01/19 10:49:57;;;;;;;70.13;33.78;;;4.70;99.90;;;;;;5023351;28;20063;-72
2022/01/19 10:52:34;;;;;;;70.00;33.03;;;4.70;99.90;;;;;;5038767;28;20091;-72
2022/01/19 10:55:03;;;;;;;69.93;33.38;;;4.80;99.90;;;;;;5004804;28;20141;-72
2022/01/19 10:57:31;;;;;;;67.07;32.58;;;5.20;99.90;;;;;;5021432;28;20920;-72
2022/01/19 11:00:13;;;;;;;71.13;35.13;;;4.80;99.90;;;;;;5021882;28;21694;-73
2022/01/19 11:02:40;;;;;;;68.07;33.67;;;4.80;99.90;;;;;;5021917;28;20053;-72
2022/01/19 11:05:07;;;;;;;83.07;35.13;;;4.80;99.90;;;;;;5029547;28;20053;-73
2022/01/19 11:07:33;;;;;;;73.05;34.45;;;4.80;99.90;;;;;;5021083;28;20513;-72
2022/01/19 11:10:13;;;;;;;72.28;33.78;;;4.80;99.90;;;;;;5024742;28;20049;-72
2022/01/19 11:12:46;;;;;;;76.53;35.30;;;4.80;99.90;;;;;;5009608;28;20112;-73
2022/01/19 11:15:14;;;;;;;79.70;37.78;;;4.80;99.90;;;;;;5026747;28;20056;-73
2022/01/19 11:17:40;;;;;;;74.97;36.42;;;4.90;99.90;;;;;;5028338;28;20048;-73
2022/01/19 11:20:09;;;;;;;81.82;36.25;;;4.90;99.90;;;;;;5029445;28;20121;-73
2022/01/19 11:23:15;;;;;;;81.60;34.63;;;4.90;99.90;;;;;;5022189;28;20045;-73
2022/01/19 11:25:43;;;;;;;79.47;36.05;;;5.00;99.90;;;;;;5040875;28;20076;-72
2022/01/19 11:28:09;;;;;;;77.10;35.95;;;5.00;99.90;;;;;;5025826;28;20045;-72
2022/01/19 11:30:35;;;;;;;73.00;34.75;;;5.00;99.90;;;;;;5041321;28;20048;-72
2022/01/19 11:33:26;;;;;;;80.45;37.20;;;5.10;99.90;;;;;;5025382;28;20044;-71
2022/01/19 11:36:20;;;;;;;76.75;36.50;;;5.10;99.90;;;;;;5036343;28;20050;-73
2022/01/19 11:38:48;;;;;;;72.35;34.83;;;5.20;99.90;;;;;;5018627;28;20049;-72
2022/01/19 11:41:14;;;;;;;87.55;36.22;;;5.20;99.90;;;;;;5012768;28;20046;-73
2022/01/19 11:43:49;;;;;;;80.82;37.75;;;5.30;99.90;;;;;;5017476;28;20060;-72
2022/01/19 11:46:48;;;;;;;73.85;34.45;;;5.40;99.90;;;;;;5008549;28;20045;-73
2022/01/19 11:49:17;;;;;;;78.15;35.95;;;5.40;99.90;;;;;;5011451;28;20536;-73
2022/01/19 11:51:45;;;;;;;73.68;35.85;;;5.50;99.90;;;;;;5023893;28;20053;-73
2022/01/19 11:54:33;;;;;;;66.90;35.20;;;5.60;99.90;;;;;;5008425;28;20658;-72
2022/01/19 11:56:58;;;;;;;69.15;34.28;;;5.60;99.90;;;;;;5021262;28;20782;-73
2022/01/19 11:59:30;;;;;;;73.20;34.97;;;5.60;99.90;;;;;;5025957;28;20045;-73
2022/01/19 12:02:20;;;;;;;72.90;36.42;;;5.60;99.90;;;;;;5030637;28;20052;-73
2022/01/19 12:04:59;;;;;;;74.50;35.88;;;5.60;99.90;;;;;;5003803;28;20481;-73
2022/01/19 12:07:41;;;;;;;69.43;35.58;;;5.60;99.90;;;;;;5004446;28;20506;-73
2022/01/19 12:10:31;;;;;;;72.18;34.90;;;5.60;99.90;;;;;;5001041;28;20057;-74
2022/01/19 12:13:44;;;;;;;73.05;35.05;;;5.60;99.90;;;;;;4993990;28;20064;-74
2022/01/19 12:16:32;;;;;;;74.60;34.90;;;5.50;99.90;;;;;;4998967;28;20593;-73
2022/01/19 12:19:20;;;;;;;71.72;34.38;;;5.50;99.90;;;;;;5029649;28;20044;-73
2022/01/19 12:22:12;;;;;;;69.40;33.03;;;5.50;99.90;;;;;;4995548;28;20091;-73
2022/01/19 12:24:43;;;;;;;72.95;33.30;;;5.50;99.90;;;;;;5032421;28;20721;-73
2022/01/19 12:27:14;;;;;;;73.15;33.60;;;5.40;99.90;;;;;;5026296;28;20350;-74
2022/01/19 12:29:47;;;;;;;75.80;35.60;;;5.40;99.90;;;;;;5006002;28;20057;-73
2022/01/19 12:32:16;;;;;;;71.88;34.40;;;5.40;99.90;;;;;;5010398;28;20140;-73
2022/01/19 12:34:45;;;;;;;66.57;33.00;;;5.40;99.90;;;;;;5026393;28;20053;-73
2022/01/19 12:37:31;;;;;;;62.15;31.77;;;5.50;99.90;;;;;;5026320;28;20053;-73
2022/01/19 12:39:57;;;;;;;64.63;32.40;;;5.50;99.90;;;;;;5021985;28;20335;-73
2022/01/19 12:42:32;;;;;;;67.70;33.00;;;5.50;99.90;;;;;;5026388;28;20124;-74
2022/01/19 12:45:00;;;;;;;70.57;32.10;;;5.50;99.90;;;;;;5023478;28;20061;-73
2022/01/19 12:47:28;;;;;;;67.13;33.25;;;5.50;99.90;;;;;;5027402;28;20132;-73
2022/01/19 12:50:07;;;;;;;64.75;29.08;;;5.50;99.90;;;;;;5010021;28;20045;-73
2022/01/19 12:52:41;;;;;;;58.97;29.40;;;5.60;99.90;;;;;;5031523;28;20064;-73
2022/01/19 12:55:17;;;;;;;58.65;30.13;;;5.60;99.90;;;;;;5010623;28;20498;-73
2022/01/19 12:57:43;;;;;;;66.65;29.33;;;5.70;99.90;;;;;;5004961;28;21809;-73
2022/01/19 13:00:12;;;;;;;67.75;30.20;;;5.70;99.90;;;;;;5004847;28;20625;-73
2022/01/19 13:02:39;;;;;;;58.58;30.17;;;5.80;99.90;;;;;;5020596;28;20057;-74
2022/01/19 13:05:07;;;;;;;68.85;30.42;;;5.80;99.90;;;;;;5022662;28;20041;-73
2022/01/19 13:07:37;;;;;;;69.25;28.92;;;5.80;99.90;;;;;;5011186;28;20053;-73
2022/01/19 13:12:38;;;;;;;68.65;28.45;;;5.70;99.90;;;;;;5021483;28;20087;-73
2022/01/19 13:15:04;;;;;;;58.65;28.92;;;5.80;99.90;;;;;;5009214;28;20115;-73
2022/01/19 13:17:47;;;;;;;63.63;28.17;;;5.80;99.90;;;;;;5011701;28;20091;-74
2022/01/19 13:20:19;;;;;;;54.17;26.65;;;5.70;99.90;;;;;;5020192;28;20150;-74
2022/01/19 13:22:47;;;;;;;;;;;5.80;99.90;;;;;;5028495;28;20045;-73
2022/01/19 13:25:39;;;;;;;58.78;28.35;;;5.70;99.90;;;;;;5034413;28;19929;-73
2022/01/19 13:28:05;;;;;;;57.30;27.40;;;5.70;99.90;;;;;;5015841;28;20057;-72
2022/01/19 13:30:33;;;;;;;58.33;28.30;;;5.70;99.90;;;;;;5018551;28;20118;-72
2022/01/19 13:33:09;;;;;;;59.63;27.33;;;5.70;99.90;;;;;;5014329;28;21533;-73
2022/01/19 13:35:35;;;;;;;56.83;26.35;;;5.70;99.90;;;;;;4992395;28;20038;-73
2022/01/19 13:38:10;;;;;;;53.75;26.25;;;5.70;99.90;;;;;;5008508;28;20133;-73
2022/01/19 13:40:36;;;;;;;57.25;26.77;;;5.70;99.90;;;;;;5025701;28;20050;-73
2022/01/19 13:43:08;;;;;;;59.28;26.98;;;5.70;99.90;;;;;;4997656;28;21507;-73
2022/01/19 13:48:28;;;;;;;52.95;25.70;;;5.60;99.90;;;;;;5027192;28;20517;-72
2022/01/19 13:51:05;;;;;;;58.40;24.73;;;5.60;99.90;;;;;;5028062;28;20453;-73
2022/01/19 13:53:40;;;;;;;55.15;23.48;;;5.60;99.90;;;;;;5007345;28;21152;-72
2022/01/19 13:56:09;;;;;;;52.75;24.52;;;5.60;99.90;;;;;;5008062;28;20092;-73
2022/01/19 13:58:56;;;;;;;55.75;24.02;;;5.60;99.90;;;;;;5013930;28;20041;-74
2022/01/19 14:01:33;;;;;;;50.35;22.92;;;5.60;99.90;;;;;;5016502;28;20048;-73
2022/01/19 14:04:07;;;;;;;58.03;25.35;;;5.50;99.90;;;;;;5033925;28;20053;-74
2022/01/19 14:06:36;;;;;;;58.85;24.55;;;5.50;99.90;;;;;;5032002;28;20152;-73
2022/01/19 14:09:16;;;;;;;55.75;24.13;;;5.50;99.90;;;;;;5006777;28;20048;-73
2022/01/19 14:12:03;;;;;;;60.58;24.38;;;5.50;99.90;;;;;;5028524;28;20057;-73
2022/01/19 14:14:50;;;;;;;48.42;21.33;;;5.40;99.90;;;;;;5014424;28;20389;-73
2022/01/19 14:17:31;;;;;;;61.72;24.85;;;5.40;99.90;;;;;;5012821;28;20045;-73
2022/01/19 14:19:58;;;;;;;53.03;22.63;;;5.40;99.90;;;;;;4995079;28;20083;-73